Time;durP1;ratioP1;P1;durP2;ratioP2;P2;SDS_P1;SDS_P2;PMS_P1;PMS_P2;Temp;Humidity;BMP_temperature;BMP_pressure;BME280_temperature;BME280_humidity;BME280_pressure;Samples;Min_cycle;Max_cycle;Signal;HPM_P1;HPM_P2
2021/04/29 00:02:10;;;;;;;28.02;21.75;;;;;;;9.06;100.00;101014.16;5094883;28;20044;-83
2021/04/29 00:04:37;;;;;;;32.00;23.55;;;;;;;9.12;100.00;101013.38;5094260;28;20377;-82
2021/04/29 00:07:04;;;;;;;26.48;23.52;;;;;;;9.50;100.00;101011.31;5087388;28;20048;-83
2021/04/29 00:09:30;;;;;;;27.27;22.20;;;;;;;9.20;100.00;101009.78;5074540;28;20374;-82
2021/04/29 00:11:58;;;;;;;27.13;22.17;;;;;;;9.09;100.00;101017.25;5077236;28;20053;-82
2021/04/29 00:14:24;;;;;;;28.25;21.60;;;;;;;9.08;100.00;101018.25;5094485;28;20488;-83
2021/04/29 00:16:50;;;;;;;30.52;21.27;;;;;;;9.23;100.00;101009.41;5094090;28;20048;-83
2021/04/29 00:19:17;;;;;;;35.10;21.88;;;;;;;9.10;100.00;101013.56;5092966;28;20105;-83
2021/04/29 00:21:44;;;;;;;30.92;22.00;;;;;;;9.06;100.00;101012.31;5094622;28;20476;-82
2021/04/29 00:24:10;;;;;;;27.83;22.63;;;;;;;9.11;100.00;101019.72;5094919;28;20125;-82
2021/04/29 00:26:38;;;;;;;27.42;22.02;;;;;;;9.10;100.00;101020.69;5077940;28;20048;-82
2021/04/29 00:29:04;;;;;;;28.23;21.50;;;;;;;9.05;100.00;101023.94;5094064;28;20105;-82
2021/04/29 00:31:30;;;;;;;31.92;23.63;;;;;;;9.14;100.00;101028.09;5076524;28;20048;-82
2021/04/29 00:33:57;;;;;;;26.98;21.73;;;;;;;9.03;100.00;101028.59;5074303;28;20045;-83
2021/04/29 00:36:23;;;;;;;29.70;21.38;;;;;;;9.08;100.00;101028.84;5074730;28;20045;-83
2021/04/29 00:38:51;;;;;;;34.83;23.98;;;;;;;9.08;100.00;101030.69;5094588;28;20044;-82
2021/04/29 00:41:18;;;;;;;29.05;22.17;;;;;;;9.02;100.00;101032.25;5094086;28;20388;-82
2021/04/29 00:43:44;;;;;;;34.25;22.17;;;;;;;9.09;100.00;101033.13;5094307;28;20047;-82
2021/04/29 00:46:13;;;;;;;35.40;24.92;;;;;;;9.16;100.00;101026.06;5094258;28;20113;-82
2021/04/29 00:48:40;;;;;;;32.35;22.08;;;;;;;9.16;100.00;101027.91;5075399;28;20049;-82
2021/04/29 00:51:06;;;;;;;33.38;22.83;;;;;;;9.14;100.00;101024.63;5074015;28;20048;-82
2021/04/29 00:53:36;;;;;;;28.92;22.23;;;;;;;9.08;100.00;101025.38;5073961;28;20590;-82
2021/04/29 00:56:03;;;;;;;28.98;22.10;;;;;;;9.18;100.00;101020.59;5093442;28;20400;-82
2021/04/29 00:58:29;;;;;;;36.45;24.00;;;;;;;9.25;100.00;101013.50;5093185;28;20063;-82
2021/04/29 01:00:57;;;;;;;31.63;23.38;;;;;;;9.13;100.00;101007.88;5073747;28;20045;-82
2021/04/29 01:03:32;;;;;;;35.15;23.17;;;;;;;9.29;100.00;101011.28;5073438;28;20055;-82
2021/04/29 01:06:04;;;;;;;31.75;21.83;;;;;;;9.21;100.00;101009.59;5074016;28;20087;-83
2021/04/29 01:08:37;;;;;;;28.85;21.05;;;;;;;9.16;100.00;101004.84;5073632;28;20052;-82
2021/04/29 01:11:10;;;;;;;31.90;21.75;;;;;;;9.17;100.00;100997.75;5073759;28;20381;-83
2021/04/29 01:13:39;;;;;;;27.95;22.35;;;;;;;9.16;100.00;101002.22;5073867;28;20056;-83
2021/04/29 01:16:08;;;;;;;33.67;22.08;;;;;;;9.18;100.00;101004.69;5073848;28;20044;-83
2021/04/29 01:18:34;;;;;;;28.45;22.25;;;;;;;9.10;100.00;101005.63;5073948;28;20048;-83
2021/04/29 01:21:04;;;;;;;30.75;21.98;;;;;;;9.13;100.00;101009.72;5074176;28;20044;-83
2021/04/29 01:23:42;;;;;;;28.50;21.42;;;;;;;9.09;100.00;100998.69;5075453;28;20052;-83
2021/04/29 01:26:15;;;;;;;32.22;23.52;;;;;;;9.07;100.00;100999.88;5073384;28;20076;-83
2021/04/29 01:28:42;;;;;;;;;;;;;;;9.10;100.00;100989.72;5073922;28;20169;-82
2021/04/29 01:31:12;;;;;;;29.52;22.63;;;;;;;9.13;100.00;100984.03;5073817;28;19924;-83
2021/04/29 01:33:39;;;;;;;31.25;22.83;;;;;;;9.05;100.00;100978.88;5077837;28;20076;-83
2021/04/29 01:36:08;;;;;;;34.67;24.17;;;;;;;9.03;100.00;100991.50;5093964;28;20045;-83
2021/04/29 01:38:35;;;;;;;31.17;23.98;;;;;;;9.10;100.00;100986.25;5093876;28;20150;-82
2021/04/29 01:41:02;;;;;;;30.02;23.30;;;;;;;8.96;100.00;100993.28;5094076;28;20059;-82
2021/04/29 01:43:29;;;;;;;30.42;22.70;;;;;;;9.04;100.00;100987.81;5094856;28;20240;-82
2021/04/29 01:45:57;;;;;;;35.47;23.45;;;;;;;9.00;100.00;100989.22;5077423;28;20072;-82
2021/04/29 01:48:24;;;;;;;32.53;24.85;;;;;;;9.06;100.00;100992.94;5077359;28;20044;-82
2021/04/29 01:50:51;;;;;;;33.20;24.95;;;;;;;9.06;100.00;100985.81;5076987;28;20523;-82
2021/04/29 01:53:19;;;;;;;39.58;23.85;;;;;;;9.01;100.00;100988.19;5086859;28;20047;-82
2021/04/29 01:55:48;;;;;;;29.35;23.33;;;;;;;9.05;100.00;100992.13;5095104;28;20074;-82
2021/04/29 01:58:15;;;;;;;30.67;22.88;;;;;;;9.09;100.00;100988.09;5092830;28;20051;-83
2021/04/29 02:00:43;;;;;;;30.98;22.50;;;;;;;9.06;100.00;100985.81;5096377;28;20048;-82
2021/04/29 02:03:13;;;;;;;37.50;23.92;;;;;;;9.06;100.00;100985.81;5096956;28;20059;-82
2021/04/29 02:05:42;;;;;;;37.47;33.47;;;;;;;9.00;100.00;100972.50;5097132;28;20492;-82
2021/04/29 02:08:09;;;;;;;39.20;30.08;;;;;;;8.99;100.00;100982.28;5096900;28;20048;-82
2021/04/29 02:10:36;;;;;;;38.08;32.92;;;;;;;8.95;100.00;100989.78;5089043;28;20091;-82
2021/04/29 02:13:07;;;;;;;37.78;33.53;;;;;;;9.00;100.00;101004.31;5096943;28;20051;-81
2021/04/29 02:15:39;;;;;;;41.10;35.40;;;;;;;9.06;100.00;100991.13;5085891;28;20045;-81
2021/04/29 02:18:09;;;;;;;34.78;31.08;;;;;;;9.06;100.00;100999.06;5076467;28;20094;-81
2021/04/29 02:20:40;;;;;;;45.58;40.78;;;;;;;9.09;100.00;101008.47;5084842;28;20040;-83
2021/04/29 02:23:09;;;;;;;41.78;34.70;;;;;;;9.04;100.00;101000.25;5076373;28;20040;-82
2021/04/29 02:25:36;;;;;;;35.22;25.00;;;;;;;9.12;100.00;101008.91;5087426;28;20044;-82
2021/04/29 02:28:03;;;;;;;30.05;22.58;;;;;;;9.12;100.00;101008.09;5096357;28;20044;-83
2021/04/29 02:30:30;;;;;;;27.92;22.48;;;;;;;9.15;100.00;101000.56;5095930;28;20052;-83
2021/04/29 02:32:56;;;;;;;35.92;23.08;;;;;;;9.12;100.00;101002.78;5076353;28;20048;-83
2021/04/29 02:35:23;;;;;;;33.08;23.98;;;;;;;9.19;100.00;101003.66;5076420;28;20041;-83
2021/04/29 02:37:53;;;;;;;30.27;23.40;;;;;;;9.14;100.00;100998.13;5090523;28;20052;-83
2021/04/29 02:40:21;;;;;;;32.60;23.40;;;;;;;9.11;100.00;101006.47;5076356;28;20059;-82
2021/04/29 02:42:48;;;;;;;30.67;21.70;;;;;;;9.08;100.00;101009.50;5076319;28;20060;-83
2021/04/29 02:45:17;;;;;;;30.95;24.15;;;;;;;8.98;100.00;101015.06;5076147;28;20048;-83
2021/04/29 02:47:45;;;;;;;34.63;24.52;;;;;;;9.02;100.00;101020.84;5079270;28;20036;-83
2021/04/29 02:50:14;;;;;;;32.60;23.85;;;;;;;9.18;100.00;101028.53;5096156;28;20062;-83
2021/04/29 02:52:41;;;;;;;32.33;25.02;;;;;;;9.25;100.00;101032.06;5096309;28;20105;-83
2021/04/29 02:55:11;;;;;;;29.38;22.88;;;;;;;9.12;100.00;101032.75;5079095;28;20060;-84
2021/04/29 02:57:37;;;;;;;38.17;26.23;;;;;;;9.10;100.00;101044.56;5076050;28;20472;-83
2021/04/29 03:00:05;;;;;;;37.15;24.00;;;;;;;9.08;100.00;101039.44;5075557;28;20056;-83
2021/04/29 03:02:32;;;;;;;36.30;24.27;;;;;;;9.24;100.00;101043.69;5075790;28;20078;-83
2021/04/29 03:04:58;;;;;;;31.98;23.50;;;;;;;9.43;100.00;101042.22;5089849;28;20044;-84
2021/04/29 03:07:25;;;;;;;39.28;25.55;;;;;;;9.49;100.00;101045.94;5093960;28;20085;-84
2021/04/29 03:09:52;;;;;;;30.98;23.92;;;;;;;9.42;100.00;101047.72;5095722;28;20055;-83
2021/04/29 03:12:19;;;;;;;39.42;24.48;;;;;;;9.45;100.00;101060.59;5095788;28;20105;-82
2021/04/29 03:14:45;;;;;;;29.83;24.45;;;;;;;9.50;100.00;101063.50;5095874;28;20052;-82
2021/04/29 03:17:12;;;;;;;34.28;24.90;;;;;;;9.50;100.00;101068.78;5092026;28;20047;-82
2021/04/29 03:19:38;;;;;;;28.13;23.88;;;;;;;9.29;100.00;101074.91;5075352;28;20044;-82
2021/04/29 03:22:04;;;;;;;32.13;24.65;;;;;;;9.28;100.00;101073.28;5080916;28;20148;-82
2021/04/29 03:24:31;;;;;;;35.42;24.77;;;;;;;9.32;100.00;101085.97;5092911;28;20055;-82
2021/04/29 03:26:57;;;;;;;34.63;27.95;;;;;;;9.14;100.00;101086.41;5075191;28;20053;-82
2021/04/29 03:29:25;;;;;;;36.95;27.55;;;;;;;9.25;100.00;101090.38;5092286;28;20044;-82
2021/04/29 03:31:51;;;;;;;35.63;26.60;;;;;;;9.14;100.00;101090.88;5075062;28;20053;-82
2021/04/29 03:34:17;;;;;;;35.72;28.55;;;;;;;9.24;100.00;101095.88;5075112;28;20048;-82
2021/04/29 03:36:43;;;;;;;34.25;26.95;;;;;;;9.47;100.00;101101.84;5074822;28;20048;-82
2021/04/29 03:39:10;;;;;;;31.52;25.98;;;;;;;9.31;100.00;101097.56;5091205;28;20048;-82
2021/04/29 03:41:37;;;;;;;35.15;26.38;;;;;;;9.43;100.00;101097.09;5076814;28;20072;-82
2021/04/29 03:44:04;;;;;;;34.30;25.85;;;;;;;9.53;100.00;101103.72;5086718;28;20040;-82
2021/04/29 03:46:31;;;;;;;34.45;25.10;;;;;;;9.56;100.00;101100.69;5077765;28;20402;-82
2021/04/29 03:48:57;;;;;;;30.40;25.17;;;;;;;9.56;100.00;101092.75;5079464;28;20055;-82
2021/04/29 03:51:23;;;;;;;30.02;24.42;;;;;;;9.53;100.00;101093.13;5091562;28;20055;-82
2021/04/29 03:53:49;;;;;;;34.85;24.70;;;;;;;9.48;100.00;101092.84;5093331;28;20048;-82
2021/04/29 03:56:16;;;;;;;37.60;25.73;;;;;;;9.46;100.00;101092.22;5082794;28;20059;-84
2021/04/29 03:58:43;;;;;;;34.50;25.52;;;;;;;9.47;100.00;101077.97;5074670;28;20060;-83
2021/04/29 04:01:09;;;;;;;29.15;24.70;;;;;;;9.34;100.00;101080.47;5075116;28;20056;-83
2021/04/29 04:03:36;;;;;;;33.13;25.65;;;;;;;9.43;100.00;101078.53;5074392;28;20055;-83
2021/04/29 04:06:03;;;;;;;37.33;25.65;;;;;;;9.58;100.00;101073.97;5083411;28;20044;-83
2021/04/29 04:08:29;;;;;;;36.78;26.92;;;;;;;9.51;100.00;101075.75;5094588;28;20063;-83
2021/04/29 04:10:55;;;;;;;34.38;26.75;;;;;;;9.59;100.00;101075.59;5094436;28;20109;-84
2021/04/29 04:13:22;;;;;;;39.80;25.60;;;;;;;9.67;100.00;101074.66;5093541;28;20052;-83
2021/04/29 04:15:49;;;;;;;31.90;26.20;;;;;;;9.69;100.00;101070.00;5075908;28;20040;-81
2021/04/29 04:18:16;;;;;;;32.65;25.83;;;;;;;9.73;100.00;101072.06;5074149;28;20070;-81
2021/04/29 04:20:43;;;;;;;30.48;26.20;;;;;;;9.71;100.00;101083.88;5074484;28;20056;-82
2021/04/29 04:23:10;;;;;;;32.55;25.52;;;;;;;9.43;100.00;101089.13;5083175;28;20047;-82
2021/04/29 04:25:36;;;;;;;36.08;26.48;;;;;;;9.73;100.00;101087.16;5078110;28;20060;-83
2021/04/29 04:28:03;;;;;;;31.98;25.25;;;;;;;9.70;100.00;101085.69;5074077;28;20056;-84
2021/04/29 04:30:30;;;;;;;29.52;25.50;;;;;;;9.64;100.00;101102.38;5073999;28;20060;-81
2021/04/29 04:32:56;;;;;;;33.50;26.85;;;;;;;9.67;100.00;101101.19;5091676;28;20044;-84
2021/04/29 04:35:23;;;;;;;33.40;24.98;;;;;;;9.59;100.00;101095.00;5087821;28;20044;-80
2021/04/29 04:37:50;;;;;;;34.47;28.25;;;;;;;9.73;100.00;101084.50;5086300;28;20060;-83
2021/04/29 04:40:16;;;;;;;33.70;27.70;;;;;;;9.57;100.00;101097.03;5082720;28;20392;-84
2021/04/29 04:42:43;;;;;;;34.97;26.15;;;;;;;9.52;100.00;101104.72;5092851;28;20056;-81
2021/04/29 04:45:11;;;;;;;40.70;29.50;;;;;;;9.42;100.00;101104.22;5082860;28;20052;-81
2021/04/29 04:47:38;;;;;;;39.58;30.17;;;;;;;9.35;100.00;101113.94;5094029;28;20063;-80
2021/04/29 04:50:07;;;;;;;41.40;30.30;;;;;;;9.33;100.00;101119.41;5079223;28;20099;-82
2021/04/29 04:52:33;;;;;;;38.65;28.77;;;;;;;9.44;100.00;101122.56;5077069;28;20044;-81
2021/04/29 04:55:01;;;;;;;38.08;29.23;;;;;;;9.48;100.00;101129.97;5093612;28;20048;-81
2021/04/29 04:57:27;;;;;;;37.15;29.88;;;;;;;9.38;100.00;101126.81;5094114;28;20056;-81
2021/04/29 04:59:53;;;;;;;39.10;30.63;;;;;;;9.48;100.00;101123.88;5093998;28;20431;-81
2021/04/29 05:02:20;;;;;;;37.65;28.85;;;;;;;9.47;100.00;101123.03;5093813;28;20063;-81
2021/04/29 05:04:47;;;;;;;37.42;28.73;;;;;;;9.50;100.00;101133.28;5093737;28;20048;-81
2021/04/29 05:07:13;;;;;;;39.30;29.90;;;;;;;9.55;100.00;101135.34;5093885;28;20044;-77
2021/04/29 05:09:42;;;;;;;42.60;30.38;;;;;;;9.85;100.00;101134.19;5094150;28;20393;-84
2021/04/29 05:12:09;;;;;;;47.13;31.90;;;;;;;9.85;100.00;101141.34;5088149;28;20054;-84
2021/04/29 05:14:36;;;;;;;47.10;31.98;;;;;;;9.84;100.00;101147.66;5088781;28;20059;-84
2021/04/29 05:17:02;;;;;;;46.83;33.80;;;;;;;9.71;100.00;101148.34;5095819;28;20052;-84
2021/04/29 05:19:28;;;;;;;54.75;33.92;;;;;;;9.70;100.00;101144.06;5092245;28;20048;-84
2021/04/29 05:21:55;;;;;;;55.47;34.13;;;;;;;9.53;100.00;101150.63;5098176;28;20445;-84
2021/04/29 05:24:21;;;;;;;60.50;35.03;;;;;;;9.74;100.00;101153.31;5087621;28;20044;-84
2021/04/29 05:26:48;;;;;;;58.83;32.95;;;;;;;9.66;100.00;101158.72;5077711;28;20063;-84
2021/04/29 05:29:15;;;;;;;52.30;33.97;;;;;;;9.46;100.00;101157.69;5077467;28;20048;-84
2021/04/29 05:31:41;;;;;;;55.50;33.13;;;;;;;9.50;100.00;101158.94;5077747;28;20121;-84
2021/04/29 05:34:08;;;;;;;53.17;32.58;;;;;;;9.61;100.00;101161.94;5077636;28;20071;-84
2021/04/29 05:36:34;;;;;;;53.28;36.00;;;;;;;9.64;100.00;101163.38;5088497;28;20098;-84
2021/04/29 05:39:00;;;;;;;50.30;31.70;;;;;;;9.65;100.00;101159.72;5085527;28;20040;-84
2021/04/29 05:41:26;;;;;;;53.33;33.22;;;;;;;9.69;100.00;101162.84;5090444;28;20523;-83
2021/04/29 05:43:53;;;;;;;59.33;37.85;;;;;;;9.67;100.00;101173.63;5078517;28;20048;-83
2021/04/29 05:46:20;;;;;;;56.45;36.78;;;;;;;9.82;100.00;101168.25;5092548;28;20063;-83
2021/04/29 05:48:46;;;;;;;50.10;33.30;;;;;;;9.74;100.00;101184.28;5097470;28;20121;-83
2021/04/29 05:51:13;;;;;;;53.20;32.63;;;;;;;9.78;100.00;101180.25;5097443;28;20059;-83
2021/04/29 05:53:39;;;;;;;49.63;31.85;;;;;;;9.69;100.00;101179.56;5097573;28;20404;-83
2021/04/29 05:56:05;;;;;;;51.03;31.67;;;;;;;9.85;100.00;101179.31;5097001;28;20055;-83
2021/04/29 05:58:32;;;;;;;52.72;32.28;;;;;;;9.66;100.00;101184.44;5097300;28;20560;-83
2021/04/29 06:00:58;;;;;;;54.03;33.38;;;;;;;9.82;100.00;101195.59;5094670;28;20051;-82
2021/04/29 06:03:25;;;;;;;51.92;34.03;;;;;;;9.99;100.00;101185.56;5076624;28;20056;-83
2021/04/29 06:05:51;;;;;;;52.75;31.10;;;;;;;9.95;100.00;101196.72;5076706;28;20040;-83
2021/04/29 06:08:18;;;;;;;50.35;32.30;;;;;;;10.03;100.00;101192.13;5077110;28;20458;-83
2021/04/29 06:10:44;;;;;;;55.45;34.28;;;;;;;9.99;100.00;101196.19;5076763;28;20045;-83
2021/04/29 06:13:10;;;;;;;50.67;33.15;;;;;;;9.69;100.00;101192.00;5092853;28;20058;-83
2021/04/29 06:15:36;;;;;;;53.00;32.35;;;;;;;9.81;100.00;101195.81;5096785;28;20044;-79
2021/04/29 06:18:03;;;;;;;55.70;33.45;;;;;;;9.82;100.00;101194.78;5096593;28;20454;-86
2021/04/29 06:20:30;;;;;;;61.10;34.80;;;;;;;9.78;100.00;101207.59;5097079;28;20052;-78
2021/04/29 06:22:57;;;;;;;56.90;35.35;;;;;;;9.67;100.00;101200.13;5097081;28;20483;-85
2021/04/29 06:25:24;;;;;;;65.55;35.72;;;;;;;9.57;100.00;101205.75;5093719;28;20052;-85
2021/04/29 06:27:50;;;;;;;71.65;39.80;;;;;;;9.59;100.00;101208.19;5096324;28;20087;-86
2021/04/29 06:30:17;;;;;;;69.68;38.97;;;;;;;9.61;100.00;101217.63;5087056;28;20048;-86
2021/04/29 06:32:44;;;;;;;65.53;39.40;;;;;;;9.64;100.00;101219.06;5085132;28;20056;-86
2021/04/29 06:35:11;;;;;;;61.65;36.67;;;;;;;9.73;100.00;101220.59;5076963;28;20044;-85
2021/04/29 06:37:38;;;;;;;56.28;34.67;;;;;;;10.01;100.00;101215.38;5079513;28;20413;-84
2021/04/29 06:40:06;;;;;;;54.22;33.78;;;;;;;9.73;100.00;101217.13;4398903;28;10000726;-83
2021/04/29 06:42:32;;;;;;;61.28;35.15;;;;;;;9.69;100.00;101224.66;5091780;28;20117;-83
2021/04/29 06:44:59;;;;;;;66.55;36.25;;;;;;;9.71;100.00;101214.66;5090543;28;20081;-84
2021/04/29 06:47:27;;;;;;;67.55;37.25;;;;;;;9.76;100.00;101224.72;5093872;28;20093;-83
2021/04/29 06:49:53;;;;;;;60.03;36.38;;;;;;;9.74;100.00;101214.31;5078841;28;20476;-84
2021/04/29 06:52:20;;;;;;;52.35;32.17;;;;;;;9.73;100.00;101214.47;5076350;28;20049;-84
2021/04/29 06:54:48;;;;;;;48.70;31.63;;;;;;;9.88;100.00;101215.25;5077662;28;20055;-84
2021/04/29 06:57:14;;;;;;;46.85;30.45;;;;;;;9.95;100.00;101215.31;5091539;28;20043;-85
2021/04/29 07:00:13;;;;;;;47.85;30.00;;;;;;;10.15;100.00;101215.50;5096052;28;20077;-85
2021/04/29 07:03:11;;;;;;;46.95;29.98;;;;;;;10.39;100.00;101222.28;5095841;28;20086;-87
2021/04/29 07:05:42;;;;;;;41.38;29.65;;;;;;;11.72;100.00;101226.44;5090295;28;20045;-86
2021/04/29 07:08:12;;;;;;;34.40;26.83;;;;;;;10.69;100.00;101221.06;5082110;28;20049;-88
2021/04/29 07:10:42;;;;;;;39.05;27.02;;;;;;;10.62;100.00;101220.22;5083096;28;20052;-77
2021/04/29 07:13:08;;;;;;;37.55;29.83;;;;;;;10.96;100.00;101222.06;5075366;28;20059;-77
2021/04/29 07:15:34;;;;;;;41.45;29.98;;;;;;;10.69;100.00;101218.41;5074858;28;20045;-78
2021/04/29 07:18:04;;;;;;;42.65;29.05;;;;;;;10.70;100.00;101224.53;5075224;28;20049;-77
2021/04/29 07:20:33;;;;;;;37.55;28.20;;;;;;;10.08;100.00;101223.41;5074905;28;20053;-76
2021/04/29 07:22:59;;;;;;;37.80;27.00;;;;;;;10.44;100.00;101235.78;5074850;28;20044;-76
2021/04/29 07:25:25;;;;;;;32.78;23.75;;;;;;;10.59;100.00;101231.22;5074694;28;20493;-77
2021/04/29 07:27:53;;;;;;;36.30;27.40;;;;;;;10.71;100.00;101232.34;5075014;28;20067;-76
2021/04/29 07:30:19;;;;;;;38.42;26.83;;;;;;;10.28;100.00;101232.38;5074659;28;20469;-76
2021/04/29 07:32:46;;;;;;;41.85;28.30;;;;;;;10.23;100.00;101237.44;5074543;28;20048;-79
2021/04/29 07:35:12;;;;;;;42.00;29.77;;;;;;;10.48;100.00;101232.56;5074637;28;20049;-77
2021/04/29 07:37:39;;;;;;;48.63;36.35;;;;;;;10.52;100.00;101235.66;5074386;28;20485;-76
2021/04/29 07:40:06;;;;;;;44.08;33.17;;;;;;;10.45;100.00;101237.44;5073986;28;20052;-76
2021/04/29 07:42:32;;;;;;;40.22;30.58;;;;;;;10.75;100.00;101238.06;5074439;28;20052;-77
2021/04/29 07:45:00;;;;;;;36.75;28.83;;;;;;;10.75;100.00;101238.88;5074756;28;20053;-77
2021/04/29 07:47:26;;;;;;;37.13;27.67;;;;;;;10.73;100.00;101240.91;5074453;28;20048;-76
2021/04/29 07:49:52;;;;;;;39.20;29.95;;;;;;;10.78;100.00;101243.00;5074739;28;20113;-76
2021/04/29 07:52:18;;;;;;;37.95;28.23;;;;;;;10.97;100.00;101234.31;5074179;28;20477;-75
2021/04/29 07:54:45;;;;;;;36.38;28.15;;;;;;;11.33;100.00;101240.44;5074151;28;20048;-77
2021/04/29 07:57:11;;;;;;;30.05;26.35;;;;;;;11.17;100.00;101252.22;5074337;28;20049;-76
2021/04/29 07:59:37;;;;;;;32.05;26.55;;;;;;;11.10;100.00;101252.16;5074165;28;20496;-76
2021/04/29 08:02:04;;;;;;;29.40;26.30;;;;;;;11.08;100.00;101254.22;5073988;28;20466;-76
2021/04/29 08:04:32;;;;;;;33.65;26.67;;;;;;;11.02;100.00;101257.66;5074117;28;20090;-76
2021/04/29 08:06:58;;;;;;;34.88;26.02;;;;;;;11.34;100.00;101244.72;5074145;28;20156;-76
2021/04/29 08:09:24;;;;;;;30.70;25.02;;;;;;;11.28;100.00;101235.69;5073918;28;20048;-75
2021/04/29 08:11:51;;;;;;;29.60;24.40;;;;;;;11.40;100.00;101235.94;5073941;28;20060;-76
2021/04/29 08:14:17;;;;;;;32.88;26.08;;;;;;;11.17;100.00;101237.09;5074126;28;20049;-76
2021/04/29 08:16:44;;;;;;;32.72;27.40;;;;;;;11.39;100.00;101236.97;5073668;28;20127;-76
2021/04/29 08:19:11;;;;;;;35.75;26.70;;;;;;;11.35;100.00;101241.06;5073997;28;20135;-78
2021/04/29 08:21:37;;;;;;;33.90;26.85;;;;;;;11.25;100.00;101246.72;5074149;28;20044;-76
2021/04/29 08:24:04;;;;;;;34.42;28.98;;;;;;;11.40;100.00;101231.44;5073932;28;20053;-76
2021/04/29 08:26:31;;;;;;;29.02;25.67;;;;;;;11.84;100.00;101234.66;5073669;28;20060;-78
2021/04/29 08:28:58;;;;;;;28.52;25.70;;;;;;;11.82;100.00;101232.19;5073498;28;20114;-76
2021/04/29 08:31:24;;;;;;;31.05;26.42;;;;;;;11.55;100.00;101233.97;5073575;28;20485;-77
2021/04/29 08:33:50;;;;;;;29.98;24.55;;;;;;;11.46;100.00;101235.16;5073529;28;20055;-76
2021/04/29 08:36:17;;;;;;;29.98;26.20;;;;;;;11.66;100.00;101233.38;5073524;28;20488;-76
2021/04/29 08:38:44;;;;;;;29.17;26.02;;;;;;;11.33;100.00;101238.59;5073525;28;20053;-76
2021/04/29 08:41:10;;;;;;;33.00;27.38;;;;;;;11.42;100.00;101241.91;5073499;28;20052;-75
2021/04/29 08:43:37;;;;;;;31.95;27.60;;;;;;;11.48;100.00;101241.09;5073430;28;20105;-75
2021/04/29 08:46:05;;;;;;;30.50;27.23;;;;;;;11.41;100.00;101242.94;5073280;28;20098;-76
2021/04/29 08:48:32;;;;;;;31.70;26.27;;;;;;;11.46;100.00;101249.28;5073411;28;20080;-76
2021/04/29 08:50:58;;;;;;;30.33;27.00;;;;;;;11.55;100.00;101247.25;5073227;28;20040;-76
2021/04/29 08:53:25;;;;;;;29.23;25.83;;;;;;;11.43;100.00;101246.19;5073574;28;20378;-76
2021/04/29 08:55:52;;;;;;;29.77;25.85;;;;;;;11.31;100.00;101239.81;5073065;28;20189;-76
2021/04/29 08:58:19;;;;;;;27.42;24.48;;;;;;;11.63;100.00;101239.13;5073393;28;20126;-76
2021/04/29 09:00:45;;;;;;;29.83;25.40;;;;;;;11.87;100.00;101235.13;5073505;28;20048;-76
2021/04/29 09:03:12;;;;;;;28.08;25.13;;;;;;;11.95;100.00;101234.09;5073503;28;20075;-76
2021/04/29 09:05:38;;;;;;;28.08;24.05;;;;;;;12.01;100.00;101230.66;5073455;28;20063;-76
2021/04/29 09:08:06;;;;;;;27.35;24.15;;;;;;;11.83;100.00;101228.53;5073627;28;20052;-76
2021/04/29 09:10:36;;;;;;;27.08;24.30;;;;;;;11.82;100.00;101223.41;5073105;28;20060;-76
2021/04/29 09:13:14;;;;;;;30.58;26.10;;;;;;;11.86;100.00;101224.66;5073537;28;20421;-76
2021/04/29 09:15:40;;;;;;;29.90;25.55;;;;;;;12.40;100.00;101231.66;5073347;28;20453;-76
2021/04/29 09:18:13;;;;;;;27.52;24.73;;;;;;;12.12;100.00;101226.53;5073461;28;20053;-76
2021/04/29 09:20:50;;;;;;;27.17;24.33;;;;;;;12.44;100.00;101222.25;5073414;28;20048;-76
2021/04/29 09:23:18;;;;;;;29.40;26.35;;;;;;;12.52;100.00;101218.56;5073142;28;20048;-76
2021/04/29 09:25:53;;;;;;;28.02;25.33;;;;;;;12.25;100.00;101201.75;5073229;28;20451;-76
2021/04/29 09:28:19;;;;;;;28.10;25.27;;;;;;;12.23;100.00;101214.47;5073297;28;20084;-76
2021/04/29 09:30:46;;;;;;;26.77;24.33;;;;;;;12.74;100.00;101209.31;5073192;28;20053;-76
2021/04/29 09:33:12;;;;;;;28.13;25.45;;;;;;;12.23;100.00;101203.81;5073281;28;20125;-76
2021/04/29 09:35:40;;;;;;;27.88;24.90;;;;;;;12.55;100.00;101210.16;5073165;28;20052;-76
2021/04/29 09:38:11;;;;;;;27.90;24.92;;;;;;;12.50;100.00;101209.97;5073216;28;20455;-77
2021/04/29 09:40:40;;;;;;;29.67;26.75;;;;;;;12.78;100.00;101204.38;5073163;28;20052;-76
2021/04/29 09:43:08;;;;;;;28.70;26.05;;;;;;;12.60;100.00;101203.19;5072982;28;20040;-77
2021/04/29 09:45:35;;;;;;;29.50;26.80;;;;;;;12.69;100.00;101210.97;5072895;28;20135;-76
2021/04/29 09:48:04;;;;;;;30.42;27.73;;;;;;;12.74;100.00;101208.50;5072839;28;20465;-76
2021/04/29 09:50:33;;;;;;;27.52;24.70;;;;;;;12.75;100.00;101210.94;5072923;28;20062;-77
2021/04/29 09:53:04;;;;;;;29.27;26.48;;;;;;;12.86;100.00;101208.66;5072686;28;20393;-76
2021/04/29 09:55:35;;;;;;;28.08;25.33;;;;;;;13.18;100.00;101206.91;5072614;28;20052;-76
2021/04/29 09:58:14;;;;;;;27.63;25.13;;;;;;;13.40;100.00;101204.81;5073066;28;20056;-76
2021/04/29 10:00:42;;;;;;;26.77;24.17;;;;;;;12.36;100.00;101204.63;5072693;28;20099;-78
2021/04/29 10:03:11;;;;;;;25.98;23.65;;;;;;;13.00;100.00;101204.94;5074898;28;20382;-76
2021/04/29 10:05:40;;;;;;;27.40;24.63;;;;;;;13.27;100.00;101203.00;5076470;28;20469;-79
2021/04/29 10:08:08;;;;;;;26.50;24.10;;;;;;;13.18;100.00;101196.25;5076407;28;20048;-76
2021/04/29 10:10:36;;;;;;;28.20;25.52;;;;;;;13.40;100.00;101189.59;5076352;28;20049;-77
2021/04/29 10:13:04;;;;;;;28.13;25.52;;;;;;;13.44;100.00;101184.69;5076371;28;20109;-76
2021/04/29 10:15:37;;;;;;;28.02;25.42;;;;;;;13.56;100.00;101180.31;5076013;28;20048;-77
2021/04/29 10:18:05;;;;;;;27.02;24.58;;;;;;;13.57;100.00;101189.13;5076278;28;20052;-76
2021/04/29 10:20:32;;;;;;;26.55;24.20;;;;;;;13.39;100.00;101187.97;5076025;28;20048;-77
2021/04/29 10:26:31;;;;;;;28.30;25.85;;;;;;;13.71;100.00;101188.03;5028771;28;20081;-77
2021/04/29 10:28:59;;;;;;;28.70;25.25;;;;;;;13.71;100.00;101183.50;5034182;28;20049;-78
2021/04/29 10:31:30;;;;;;;28.52;25.90;;;;;;;13.84;100.00;101189.78;5034298;28;20053;-78
2021/04/29 10:33:58;;;;;;;28.15;25.65;;;;;;;13.61;100.00;101183.13;5034642;28;20068;-77
2021/04/29 10:36:36;;;;;;;29.50;26.90;;;;;;;13.86;100.00;101182.38;5034094;28;20046;-77
2021/04/29 10:39:15;;;;;;;27.10;24.90;;;;;;;13.96;100.00;101183.53;5034196;28;20119;-77
2021/04/29 10:41:43;;;;;;;27.98;25.65;;;;;;;14.08;100.00;101167.63;5034039;28;20050;-76
2021/04/29 10:44:11;;;;;;;28.50;26.08;;;;;;;14.48;100.00;101177.94;5034044;28;20514;-77
2021/04/29 10:46:40;;;;;;;29.63;27.42;;;;;;;13.91;100.00;101170.00;5033969;28;20084;-79
2021/04/29 10:49:08;;;;;;;26.05;23.92;;;;;;;13.60;100.00;101170.03;5033938;28;20053;-76
2021/04/29 10:51:35;;;;;;;26.65;24.23;;;;;;;13.55;100.00;101165.31;5033901;28;20092;-78
2021/04/29 10:54:12;;;;;;;27.30;25.08;;;;;;;13.82;100.00;101160.63;5033613;28;20053;-77
2021/04/29 10:56:38;;;;;;;28.10;25.63;;;;;;;13.98;100.00;101165.44;5033723;28;20053;-77
2021/04/29 10:59:10;;;;;;;24.35;22.58;;;;;;;13.75;100.00;101166.00;5033851;28;20053;-77
2021/04/29 11:01:43;;;;;;;26.13;23.73;;;;;;;13.86;100.00;101169.03;5033817;28;20119;-77
2021/04/29 11:04:19;;;;;;;24.17;22.42;;;;;;;13.79;100.00;101161.06;5033595;28;20049;-76
2021/04/29 11:06:46;;;;;;;24.92;22.92;;;;;;;13.80;100.00;101157.38;5033658;28;20057;-77
2021/04/29 11:09:17;;;;;;;25.67;23.40;;;;;;;13.56;100.00;101158.97;5033708;28;20046;-76
2021/04/29 11:11:44;;;;;;;25.52;23.48;;;;;;;13.29;100.00;101155.63;5033559;28;20061;-77
2021/04/29 11:14:12;;;;;;;23.90;22.02;;;;;;;13.46;100.00;101156.75;5033552;28;20049;-77